首页
METAR-TAF:

METAR-TAF

机场 :

St. George Municipal Airport

圣乔治, 犹他州, 美国

纬度: 37-05N, 经度: 113-36W, 海拔: 896米

当前天气观测

该预报发布于18分钟前的16:56 UTC
风速8节,风向
温度 12°C
湿度 38%
气压 1014 hPa
能見度: 16.1公里
天空无云

METAR: KSGU 021656Z AUTO 17008KT 10SM CLR 12/M02 A2994 RMK AO2 SLP119 T01171017

时间: 11:14 (17:14 UTC)

预报

该预报发布于5小时和54分钟前的11:20 UTC
预报有效从02日的 12点(UTC)到 03日的 12点(UTC)
风速13节,风向东北
能見度: 10公里
散云层高于8000英尺
从 02日的 1800点(UTC)
风速15节,风向北转西北,有时为20节阵风
能見度: 10公里
天空无云
从 03日的 0100点(UTC)
风速8节,风向东北
能見度: 10公里
天空无云

TAF: KSGU 021120Z 0212/0312 04013KT P6SM SCT080 FM021800 34015G20KT P6SM SKC FM030100 04008KT P6SM SKC

超过4000个机场的气象观测和天气预报(METAR&TAF报告)。

可查询的气象台以黄色和红色小点在地图上表示。

将鼠标移到小点上方,可查看气象台名称。

然后点击查看天气观测和预报。

如需切换地图:点击带黑十字的绿色按钮放大地图;点击带横线的绿色按钮缩小地图;或者点击绿色箭头查看邻近地区的地图。


METAR-TAF: